createdAt,value
2018-11-04T00:01:37.084Z,19.93
2018-11-04T00:04:05.557Z,20.17
2018-11-04T00:06:34.455Z,17.67
2018-11-04T00:09:11.189Z,18.87
2018-11-04T00:11:40.897Z,18.83
2018-11-04T00:14:10.308Z,17.87
2018-11-04T00:16:38.660Z,18.33
2018-11-04T00:19:07.090Z,18.53
2018-11-04T00:21:35.419Z,19.40
2018-11-04T00:24:03.978Z,20.43
2018-11-04T00:26:32.360Z,22.33
2018-11-04T00:29:00.720Z,20.60
2018-11-04T00:31:29.131Z,19.83
2018-11-04T00:33:57.464Z,19.63
2018-11-04T00:36:25.821Z,22.43
2018-11-04T00:38:54.164Z,20.33
2018-11-04T00:41:22.571Z,17.43
2018-11-04T00:43:50.957Z,19.13
2018-11-04T00:46:19.339Z,20.93
2018-11-04T00:48:47.782Z,20.83
2018-11-04T00:51:16.190Z,22.53
2018-11-04T00:53:44.552Z,18.43
2018-11-04T00:56:12.991Z,22.10
2018-11-04T00:58:41.348Z,21.90
2018-11-04T01:01:09.751Z,20.00
2018-11-04T01:03:38.138Z,20.40
2018-11-04T01:06:06.501Z,23.73
2018-11-04T01:08:34.852Z,20.00
2018-11-04T01:11:03.203Z,21.30
2018-11-04T01:13:31.562Z,22.37
2018-11-04T01:15:59.928Z,20.83
2018-11-04T01:18:28.251Z,21.70
2018-11-04T01:20:56.633Z,20.47
2018-11-04T01:23:25.032Z,21.60
2018-11-04T01:25:53.444Z,23.37
2018-11-04T01:28:21.804Z,19.13
2018-11-04T01:30:50.199Z,21.40
2018-11-04T01:33:18.548Z,23.03
2018-11-04T01:35:46.886Z,22.07
2018-11-04T01:38:15.253Z,20.80
2018-11-04T01:40:43.663Z,20.83
2018-11-04T01:43:12.024Z,23.53
2018-11-04T01:45:40.439Z,21.30
2018-11-04T01:48:08.779Z,21.73
2018-11-04T01:50:37.151Z,23.93
2018-11-04T01:53:05.689Z,21.40
2018-11-04T01:55:34.054Z,20.03
2018-11-04T01:58:02.390Z,22.40
2018-11-04T02:00:30.776Z,22.47
2018-11-04T02:02:59.157Z,23.20
2018-11-04T02:05:27.560Z,24.90
2018-11-04T02:07:56.032Z,21.50
2018-11-04T02:10:24.430Z,22.33
2018-11-04T02:12:52.804Z,26.57
2018-11-04T02:15:21.157Z,22.30
2018-11-04T02:17:49.558Z,21.57
2018-11-04T02:20:17.871Z,23.67
2018-11-04T02:22:46.183Z,23.47
2018-11-04T02:25:15.019Z,21.10
2018-11-04T02:27:43.889Z,22.67
2018-11-04T02:30:14.627Z,21.47
2018-11-04T02:32:43.895Z,23.97
2018-11-04T02:35:12.787Z,23.03
2018-11-04T02:37:41.232Z,20.97
2018-11-04T02:40:10.061Z,23.47
2018-11-04T02:42:38.492Z,21.23
2018-11-04T02:45:07.347Z,23.87
2018-11-04T02:47:36.042Z,24.17
2018-11-04T02:50:04.724Z,24.60
2018-11-04T02:52:33.127Z,26.23
2018-11-04T02:55:01.445Z,23.30
2018-11-04T02:57:29.849Z,26.13
2018-11-04T02:59:58.263Z,22.47
2018-11-04T03:02:26.583Z,21.73
2018-11-04T03:04:54.937Z,21.60
2018-11-04T03:07:23.273Z,24.20
2018-11-04T03:09:51.629Z,23.37
2018-11-04T03:12:20.132Z,27.63
2018-11-04T03:14:48.515Z,25.90
2018-11-04T03:17:16.860Z,29.47
2018-11-04T03:19:45.271Z,25.27
2018-11-04T03:22:13.649Z,25.97
2018-11-04T03:24:42.045Z,24.57
2018-11-04T03:27:10.322Z,26.97
2018-11-04T03:29:38.621Z,25.50
2018-11-04T03:32:06.948Z,25.90
2018-11-04T03:34:35.262Z,27.83
2018-11-04T03:37:03.611Z,25.40
2018-11-04T03:39:31.960Z,27.50
2018-11-04T03:42:00.349Z,26.77
2018-11-04T03:44:28.697Z,27.07
2018-11-04T03:46:57.051Z,29.73
2018-11-04T03:49:25.375Z,27.70
2018-11-04T03:51:53.720Z,27.80
2018-11-04T03:54:22.072Z,27.33
2018-11-04T03:56:50.386Z,25.80
2018-11-04T03:59:18.743Z,31.73
2018-11-04T04:01:47.067Z,26.77
2018-11-04T04:04:15.435Z,29.40
2018-11-04T04:06:43.791Z,32.20
2018-11-04T04:09:12.084Z,27.10
2018-11-04T04:11:40.423Z,30.53
2018-11-04T04:14:09.045Z,29.30
2018-11-04T04:16:37.367Z,30.60
2018-11-04T04:19:05.702Z,31.77
2018-11-04T04:21:34.040Z,28.07
2018-11-04T04:24:02.355Z,29.77
2018-11-04T04:26:30.701Z,29.40
2018-11-04T04:28:59.051Z,32.07
2018-11-04T04:31:27.404Z,29.47
2018-11-04T04:33:55.770Z,29.03
2018-11-04T04:36:24.089Z,26.70
2018-11-04T04:38:52.383Z,29.40
2018-11-04T04:41:20.749Z,29.07
2018-11-04T04:43:49.069Z,29.00
2018-11-04T04:46:17.408Z,29.57
2018-11-04T04:48:45.792Z,34.60
2018-11-04T04:51:14.120Z,28.47
2018-11-04T04:53:42.512Z,29.27
2018-11-04T04:56:10.834Z,31.60
2018-11-04T04:58:39.144Z,32.00
2018-11-04T05:01:07.439Z,30.00
2018-11-04T05:03:35.767Z,29.33
2018-11-04T05:06:04.107Z,30.50
2018-11-04T05:08:32.498Z,32.63
2018-11-04T05:11:00.834Z,28.30
2018-11-04T05:13:29.148Z,31.07
2018-11-04T05:15:57.541Z,28.07
2018-11-04T05:18:25.945Z,31.40
2018-11-04T05:20:54.396Z,31.47
2018-11-04T05:23:22.804Z,31.03
2018-11-04T05:25:51.150Z,31.10
2018-11-04T05:28:19.509Z,33.57
2018-11-04T05:30:47.835Z,34.43
2018-11-04T05:33:16.332Z,30.30
2018-11-04T05:35:44.682Z,31.37
2018-11-04T05:38:13.107Z,30.37
2018-11-04T05:40:41.460Z,32.10
2018-11-04T05:43:09.771Z,31.40
2018-11-04T05:45:38.107Z,35.90
2018-11-04T05:48:06.456Z,31.87
2018-11-04T05:50:34.784Z,34.20
2018-11-04T05:53:03.172Z,34.53
2018-11-04T05:55:31.532Z,32.17
2018-11-04T05:57:59.913Z,33.27
2018-11-04T06:00:28.256Z,35.13
2018-11-04T06:02:56.614Z,32.87
2018-11-04T06:05:24.959Z,32.70
2018-11-04T06:07:53.383Z,32.73
2018-11-04T06:10:21.707Z,33.17
2018-11-04T06:12:50.105Z,31.47
2018-11-04T06:15:18.440Z,33.07
2018-11-04T06:17:46.784Z,32.53
2018-11-04T06:20:15.090Z,33.63
2018-11-04T06:22:44.122Z,33.80
2018-11-04T06:25:12.499Z,33.70
2018-11-04T06:27:40.863Z,36.17
2018-11-04T06:30:11.192Z,34.40
2018-11-04T06:32:39.652Z,35.23
2018-11-04T06:35:08.579Z,36.97
2018-11-04T06:37:37.228Z,31.10
2018-11-04T06:40:06.368Z,34.67
2018-11-04T06:42:34.743Z,33.30
2018-11-04T06:45:03.101Z,34.50
2018-11-04T06:47:31.535Z,35.73
2018-11-04T06:49:59.837Z,36.53
2018-11-04T06:52:28.171Z,35.77
2018-11-04T06:54:56.497Z,35.60
2018-11-04T06:57:24.868Z,35.90
2018-11-04T06:59:53.251Z,36.10
2018-11-04T07:02:21.588Z,39.17
2018-11-04T07:04:49.941Z,39.80
2018-11-04T07:07:18.416Z,34.33
2018-11-04T07:09:46.758Z,34.63
2018-11-04T07:12:15.108Z,36.00
2018-11-04T07:14:43.433Z,37.43
2018-11-04T07:17:11.759Z,38.30
2018-11-04T07:19:40.114Z,35.13
2018-11-04T07:22:08.399Z,37.47
2018-11-04T07:24:36.768Z,36.33
2018-11-04T07:27:05.528Z,35.73
2018-11-04T07:29:33.875Z,36.77
2018-11-04T07:32:02.205Z,38.57
2018-11-04T07:34:30.495Z,38.37
2018-11-04T07:36:58.865Z,36.40
2018-11-04T07:39:27.254Z,35.80
2018-11-04T07:41:55.557Z,35.70
2018-11-04T07:44:23.993Z,35.60
2018-11-04T07:46:52.255Z,37.77
2018-11-04T07:49:20.589Z,38.83
2018-11-04T07:51:48.977Z,36.93
2018-11-04T07:54:17.345Z,35.20
2018-11-04T07:56:45.785Z,35.23
2018-11-04T07:59:14.161Z,31.67
2018-11-04T08:01:42.516Z,38.17
2018-11-04T08:04:10.961Z,40.43
2018-11-04T08:06:39.315Z,35.80
2018-11-04T08:09:08.912Z,36.93
2018-11-04T08:11:37.394Z,32.93
2018-11-04T08:14:05.813Z,33.90
2018-11-04T08:16:34.143Z,42.47
2018-11-04T08:19:02.563Z,33.93
2018-11-04T08:21:30.904Z,35.30
2018-11-04T08:23:59.269Z,44.30
2018-11-04T08:26:27.616Z,38.73
2018-11-04T08:28:56.017Z,38.20
2018-11-04T08:31:29.441Z,37.47
2018-11-04T08:33:57.941Z,35.83
2018-11-04T08:36:26.252Z,38.50
2018-11-04T08:38:54.658Z,46.80
2018-11-04T08:41:22.967Z,34.87
2018-11-04T08:43:51.529Z,42.60
2018-11-04T08:46:19.919Z,38.77
2018-11-04T08:48:48.307Z,35.93
2018-11-04T08:51:16.797Z,40.50
2018-11-04T08:53:45.202Z,38.87
2018-11-04T08:56:13.620Z,39.67
2018-11-04T08:58:41.983Z,36.80
2018-11-04T09:01:10.430Z,38.37
2018-11-04T09:03:38.782Z,38.07
2018-11-04T09:06:07.121Z,38.10
2018-11-04T09:08:35.549Z,39.53
2018-11-04T09:11:03.840Z,37.63
2018-11-04T09:13:32.183Z,38.50
2018-11-04T09:16:00.552Z,39.30
2018-11-04T09:18:29.028Z,37.53
2018-11-04T09:20:57.429Z,35.43
2018-11-04T09:23:25.775Z,32.50
2018-11-04T09:25:54.127Z,37.77
2018-11-04T09:28:22.574Z,35.37
2018-11-04T09:30:50.974Z,40.47
2018-11-04T09:33:19.299Z,39.83
2018-11-04T09:35:47.890Z,40.10
2018-11-04T09:38:16.174Z,35.73
2018-11-04T09:40:44.503Z,37.30
2018-11-04T09:43:12.841Z,35.87
2018-11-04T09:45:41.174Z,38.00
2018-11-04T09:48:09.530Z,36.20
2018-11-04T09:50:37.868Z,38.10
2018-11-04T09:53:06.162Z,34.30
2018-11-04T09:55:34.541Z,41.33
2018-11-04T09:58:02.903Z,37.57
2018-11-04T10:00:31.289Z,35.70
2018-11-04T10:02:59.672Z,36.60
2018-11-04T10:05:28.002Z,36.30
2018-11-04T10:07:56.303Z,37.47
2018-11-04T10:10:24.641Z,37.67
2018-11-04T10:12:52.983Z,42.63
2018-11-04T10:15:21.379Z,37.43
2018-11-04T10:17:49.702Z,38.63
2018-11-04T10:20:18.336Z,36.43
2018-11-04T10:22:46.420Z,35.27
2018-11-04T10:25:14.715Z,37.10
2018-11-04T10:27:43.328Z,38.20
2018-11-04T10:30:14.415Z,35.23
2018-11-04T10:32:42.849Z,35.33
2018-11-04T10:35:11.391Z,34.03
2018-11-04T10:37:40.632Z,35.10
2018-11-04T10:40:10.260Z,37.03
2018-11-04T10:42:38.576Z,36.53
2018-11-04T10:45:08.051Z,36.50
2018-11-04T10:47:36.341Z,39.53
2018-11-04T10:50:05.655Z,33.90
2018-11-04T10:52:33.920Z,37.97
2018-11-04T10:55:02.292Z,36.50
2018-11-04T10:57:30.669Z,40.03
2018-11-04T10:59:59.034Z,38.07
2018-11-04T11:02:27.467Z,37.60
2018-11-04T11:04:55.821Z,34.37
2018-11-04T11:07:24.167Z,38.17
2018-11-04T11:09:52.568Z,37.83
2018-11-04T11:12:20.927Z,42.47
2018-11-04T11:14:49.270Z,41.43
2018-11-04T11:17:17.600Z,43.80
2018-11-04T11:19:45.933Z,35.83
2018-11-04T11:22:14.717Z,33.13
2018-11-04T11:24:43.137Z,34.90
2018-11-04T11:27:11.459Z,40.17
2018-11-04T11:29:39.953Z,38.40
2018-11-04T11:32:08.256Z,36.27
2018-11-04T11:34:36.998Z,36.77
2018-11-04T11:37:05.963Z,38.53
2018-11-04T11:39:35.120Z,39.63
2018-11-04T11:42:04.012Z,37.43
2018-11-04T11:44:32.681Z,35.63
2018-11-04T11:47:01.069Z,34.07
2018-11-04T11:49:29.680Z,36.07
2018-11-04T11:51:58.243Z,32.70
2018-11-04T11:54:26.621Z,32.57
2018-11-04T11:56:55.370Z,33.17
2018-11-04T11:59:23.941Z,35.17
2018-11-04T12:01:52.316Z,35.00
2018-11-04T12:04:20.677Z,34.17
2018-11-04T12:06:49.072Z,33.10
2018-11-04T12:09:18.490Z,34.07
2018-11-04T12:11:46.832Z,31.47
2018-11-04T12:14:15.215Z,33.67
2018-11-04T12:16:43.575Z,36.03
2018-11-04T12:19:12.141Z,31.07
2018-11-04T12:21:40.496Z,34.27
2018-11-04T12:24:08.882Z,32.10
2018-11-04T12:26:37.300Z,31.17
2018-11-04T12:29:05.787Z,36.63
2018-11-04T12:31:34.163Z,32.13
2018-11-04T12:34:02.479Z,28.67
2018-11-04T12:36:30.875Z,29.87
2018-11-04T12:38:59.406Z,29.53
2018-11-04T12:41:27.770Z,30.10
2018-11-04T12:43:56.151Z,30.77
2018-11-04T12:46:24.491Z,32.47
2018-11-04T12:48:52.807Z,33.90
2018-11-04T12:51:21.201Z,28.87
2018-11-04T12:53:49.538Z,31.17
2018-11-04T12:56:17.914Z,29.67
2018-11-04T12:58:46.258Z,29.50
2018-11-04T13:01:14.653Z,31.83
2018-11-04T13:03:42.960Z,31.33
2018-11-04T13:06:11.288Z,31.93
2018-11-04T13:08:39.619Z,30.47
2018-11-04T13:11:07.935Z,31.13
2018-11-04T13:13:36.285Z,33.07
2018-11-04T13:16:04.665Z,30.30
2018-11-04T13:18:32.995Z,28.77
2018-11-04T13:21:01.429Z,30.83
2018-11-04T13:23:29.763Z,30.03
2018-11-04T13:25:58.200Z,27.17
2018-11-04T13:28:26.521Z,30.27
2018-11-04T13:30:54.817Z,27.27
2018-11-04T13:33:23.199Z,28.90
2018-11-04T13:35:51.565Z,30.83
2018-11-04T13:38:19.844Z,31.53
2018-11-04T13:40:48.180Z,30.33
2018-11-04T13:43:16.736Z,29.50
2018-11-04T13:45:45.287Z,30.00
2018-11-04T13:48:13.712Z,29.00
2018-11-04T13:50:42.063Z,26.33
2018-11-04T13:53:10.431Z,26.70
2018-11-04T13:55:38.765Z,30.80
2018-11-04T13:58:07.112Z,28.73
2018-11-04T14:00:35.883Z,27.40
2018-11-04T14:03:04.456Z,28.13
2018-11-04T14:05:32.684Z,26.37
2018-11-04T14:08:01.003Z,32.23
2018-11-04T14:10:29.311Z,29.20
2018-11-04T14:12:57.865Z,24.83
2018-11-04T14:15:26.123Z,27.17
2018-11-04T14:17:54.460Z,28.47
2018-11-04T14:20:22.776Z,28.83
2018-11-04T14:22:51.123Z,26.43
2018-11-04T14:25:19.477Z,25.13
2018-11-04T14:27:47.865Z,24.07
2018-11-04T14:30:16.411Z,24.60
2018-11-04T14:32:44.801Z,26.40
2018-11-04T14:35:13.360Z,52.47
2018-11-04T14:37:42.545Z,31.33
2018-11-04T14:40:12.677Z,23.33
2018-11-04T14:45:06.156Z,21.80
2018-11-04T14:47:34.532Z,20.77
2018-11-04T14:50:03.109Z,19.93
2018-11-04T14:52:31.720Z,19.23
2018-11-04T14:55:00.093Z,17.60
2018-11-04T14:57:28.535Z,18.93
2018-11-04T14:59:56.938Z,19.10
2018-11-04T15:02:25.307Z,17.67
2018-11-04T15:04:53.683Z,18.43
2018-11-04T15:07:22.102Z,19.97
2018-11-04T15:09:50.432Z,18.07
2018-11-04T15:12:19.016Z,23.40
2018-11-04T15:14:47.370Z,20.43
2018-11-04T15:17:15.768Z,23.47
2018-11-04T15:19:44.131Z,26.40
2018-11-04T15:22:12.611Z,26.00
2018-11-04T15:24:41.011Z,25.80
2018-11-04T15:27:09.345Z,23.20
2018-11-04T15:29:37.717Z,22.00
2018-11-04T15:32:06.247Z,23.10
2018-11-04T15:34:34.906Z,23.17
2018-11-04T15:37:03.182Z,22.83
2018-11-04T15:39:32.638Z,22.07
2018-11-04T15:42:07.729Z,24.03
2018-11-04T15:44:36.063Z,23.70
2018-11-04T15:47:04.802Z,23.60
2018-11-04T15:49:33.264Z,24.00
2018-11-04T15:52:01.675Z,23.33
2018-11-04T15:54:30.105Z,23.27
2018-11-04T15:57:03.646Z,28.25
2018-11-04T15:59:32.084Z,23.60
2018-11-04T16:02:00.489Z,21.90
2018-11-04T16:04:28.829Z,20.13
2018-11-04T16:06:57.244Z,17.07
2018-11-04T16:09:25.575Z,18.03
2018-11-04T16:11:53.908Z,18.97
2018-11-04T16:14:22.249Z,18.53
2018-11-04T16:16:50.588Z,17.07
2018-11-04T16:19:19.005Z,16.90
2018-11-04T16:21:47.298Z,15.47
2018-11-04T16:24:15.611Z,14.90
2018-11-04T16:26:43.924Z,15.63
2018-11-04T16:29:12.252Z,12.63
2018-11-04T16:31:42.140Z,14.23
2018-11-04T16:34:10.466Z,15.33
2018-11-04T16:36:38.934Z,16.57
2018-11-04T16:39:07.665Z,14.27
2018-11-04T16:41:36.099Z,13.40
2018-11-04T16:44:04.796Z,15.37
2018-11-04T16:46:33.376Z,13.63
2018-11-04T16:49:01.964Z,13.13
2018-11-04T16:51:30.297Z,13.27
2018-11-04T16:53:58.616Z,14.23
2018-11-04T16:56:27.091Z,15.37
2018-11-04T16:58:55.422Z,15.00
2018-11-04T17:01:23.761Z,12.37
2018-11-04T17:03:52.404Z,15.43
2018-11-04T17:06:20.810Z,16.53
2018-11-04T17:08:49.168Z,14.13
2018-11-04T17:11:17.655Z,15.10
2018-11-04T17:13:45.990Z,15.00
2018-11-04T17:16:14.409Z,15.77
2018-11-04T17:18:42.748Z,15.47
2018-11-04T17:21:11.092Z,15.33
2018-11-04T17:23:39.485Z,13.80
2018-11-04T17:26:07.807Z,15.70
2018-11-04T17:28:36.159Z,13.63
2018-11-04T17:31:04.840Z,14.23
2018-11-04T17:33:33.190Z,17.13
2018-11-04T17:36:01.601Z,14.27
2018-11-04T17:38:29.860Z,14.30
2018-11-04T17:40:58.188Z,14.50
2018-11-04T17:43:26.574Z,15.03
2018-11-04T17:45:54.984Z,14.60
2018-11-04T17:48:23.323Z,15.37
2018-11-04T17:50:53.573Z,14.40
2018-11-04T17:53:22.099Z,13.37
2018-11-04T17:55:50.841Z,15.00
2018-11-04T17:58:23.358Z,20.80
2018-11-04T18:00:52.640Z,13.93
2018-11-04T18:03:22.047Z,14.23
2018-11-04T18:05:50.484Z,13.17
2018-11-04T18:08:21.633Z,15.40
2018-11-04T18:10:50.360Z,15.33
2018-11-04T18:13:18.989Z,12.67
2018-11-04T18:15:48.000Z,12.73
2018-11-04T18:18:16.961Z,12.77
2018-11-04T18:20:45.710Z,13.97
2018-11-04T18:23:14.090Z,12.17
2018-11-04T18:25:42.437Z,11.40
2018-11-04T18:28:10.782Z,11.13
2018-11-04T18:30:39.148Z,13.73
2018-11-04T18:33:07.484Z,12.00
2018-11-04T18:35:35.873Z,10.57
2018-11-04T18:38:04.620Z,10.37
2018-11-04T18:40:32.976Z,11.20
2018-11-04T18:43:01.347Z,11.27
2018-11-04T18:45:29.843Z,11.83
2018-11-04T18:47:58.247Z,10.00
2018-11-04T18:50:26.645Z,11.33
2018-11-04T18:52:55.008Z,11.77
2018-11-04T18:55:23.287Z,10.03
2018-11-04T18:57:51.713Z,10.87
2018-11-04T19:00:20.655Z,10.83
2018-11-04T19:02:49.545Z,11.47
2018-11-04T19:05:17.947Z,11.93
2018-11-04T19:07:46.372Z,11.87
2018-11-04T19:10:16.143Z,9.43
2018-11-04T19:12:44.684Z,12.03
2018-11-04T19:15:13.103Z,13.80
2018-11-04T19:17:41.415Z,12.30
2018-11-04T19:20:11.766Z,11.47
2018-11-04T19:22:40.173Z,11.73
2018-11-04T19:25:09.568Z,11.13
2018-11-04T19:27:38.007Z,10.07
2018-11-04T19:30:08.265Z,11.30
2018-11-04T19:32:36.733Z,9.87
2018-11-04T19:35:06.073Z,12.33
2018-11-04T19:37:34.392Z,11.43
2018-11-04T19:40:02.864Z,12.13
2018-11-04T19:42:31.274Z,10.60
2018-11-04T19:44:59.571Z,9.83
2018-11-04T19:47:27.888Z,11.57
2018-11-04T19:49:56.266Z,10.90
2018-11-04T19:52:24.580Z,10.63
2018-11-04T19:54:52.926Z,10.63
2018-11-04T19:57:25.448Z,12.07
2018-11-04T19:59:54.264Z,13.77
2018-11-04T20:02:22.665Z,11.77
2018-11-04T20:04:51.054Z,12.37
2018-11-04T20:07:23.203Z,13.80
2018-11-04T20:09:51.716Z,12.83
2018-11-04T20:12:25.377Z,16.90
2018-11-04T20:14:53.762Z,13.57
2018-11-04T20:17:22.096Z,14.03
2018-11-04T20:19:55.801Z,13.00
2018-11-04T20:22:24.187Z,13.37
2018-11-04T20:24:58.142Z,12.10
2018-11-04T20:27:26.689Z,13.97
2018-11-04T20:29:55.042Z,14.77
2018-11-04T20:32:28.737Z,13.70
2018-11-04T20:34:57.243Z,15.90
2018-11-04T20:37:25.688Z,12.73
2018-11-04T20:39:59.476Z,12.40
2018-11-04T20:42:27.834Z,13.50
2018-11-04T20:44:56.304Z,13.40
2018-11-04T20:47:30.097Z,14.73
2018-11-04T20:50:03.747Z,15.63
2018-11-04T20:52:32.083Z,13.87
2018-11-04T20:55:00.511Z,14.87
2018-11-04T20:57:34.472Z,14.47
2018-11-04T21:00:03.131Z,12.80
2018-11-04T21:02:31.677Z,20.30
2018-11-04T21:04:59.824Z,14.97
2018-11-04T21:07:28.170Z,17.97
2018-11-04T21:09:56.693Z,13.53
2018-11-04T21:12:25.052Z,17.03
2018-11-04T21:14:53.430Z,32.40
2018-11-04T21:17:22.052Z,15.63
2018-11-04T21:19:50.659Z,14.90
2018-11-04T21:22:19.097Z,12.57
2018-11-04T21:24:47.534Z,12.43
2018-11-04T21:27:15.816Z,14.60
2018-11-04T21:29:44.502Z,13.40
2018-11-04T21:32:12.597Z,13.47
2018-11-04T21:34:40.964Z,13.17
2018-11-04T21:37:09.398Z,15.60
2018-11-04T21:39:37.792Z,15.83
2018-11-04T21:42:06.221Z,14.43
2018-11-04T21:44:34.682Z,13.37
2018-11-04T21:47:03.125Z,15.80
2018-11-04T21:49:31.468Z,15.07
2018-11-04T21:51:59.805Z,14.37
2018-11-04T21:54:28.091Z,13.90
2018-11-04T21:56:57.004Z,13.53
2018-11-04T21:59:25.332Z,13.30
2018-11-04T22:01:54.056Z,14.10
2018-11-04T22:04:22.595Z,13.63
2018-11-04T22:06:51.077Z,16.07
2018-11-04T22:09:19.464Z,15.80
2018-11-04T22:11:47.794Z,14.87
2018-11-04T22:14:16.161Z,18.90
2018-11-04T22:16:44.616Z,13.47
2018-11-04T22:19:13.081Z,16.40
2018-11-04T22:21:41.375Z,13.53
2018-11-04T22:24:09.703Z,16.07
2018-11-04T22:26:38.025Z,13.53
2018-11-04T22:29:06.374Z,14.60
2018-11-04T22:31:34.708Z,13.33
2018-11-04T22:34:03.080Z,15.33
2018-11-04T22:36:31.483Z,14.40
2018-11-04T22:38:59.933Z,11.40
2018-11-04T22:41:28.338Z,13.33
2018-11-04T22:43:56.659Z,13.13
2018-11-04T22:46:25.068Z,15.10
2018-11-04T22:48:53.426Z,14.53
2018-11-04T22:51:21.751Z,14.17
2018-11-04T22:53:50.193Z,12.10
2018-11-04T22:56:18.606Z,18.20
2018-11-04T22:58:47.015Z,14.57
2018-11-04T23:01:15.464Z,16.07
2018-11-04T23:03:43.840Z,16.73
2018-11-04T23:06:12.194Z,15.13
2018-11-04T23:08:40.507Z,15.50
2018-11-04T23:11:08.900Z,16.40
2018-11-04T23:13:37.347Z,15.73
2018-11-04T23:16:05.871Z,16.77
2018-11-04T23:18:34.249Z,16.10
2018-11-04T23:21:02.642Z,16.67
2018-11-04T23:23:31.068Z,15.87
2018-11-04T23:25:59.456Z,15.73
2018-11-04T23:28:27.879Z,17.50
2018-11-04T23:30:56.181Z,16.63
2018-11-04T23:33:24.562Z,16.93
2018-11-04T23:35:52.886Z,17.23
2018-11-04T23:38:21.249Z,16.40
2018-11-04T23:40:49.679Z,16.57
2018-11-04T23:43:18.034Z,17.87
2018-11-04T23:45:46.358Z,18.47
2018-11-04T23:48:14.740Z,15.20
2018-11-04T23:50:43.146Z,18.10
2018-11-04T23:53:11.504Z,19.20
2018-11-04T23:55:39.915Z,20.37
2018-11-04T23:58:10.330Z,20.03
